createdAt,value
2019-03-18T00:00:10.938Z,58.79
2019-03-18T00:02:39.959Z,58.67
2019-03-18T00:05:07.249Z,59.44
2019-03-18T00:07:34.429Z,59.17
2019-03-18T00:10:06.797Z,59.31
2019-03-18T00:12:33.970Z,59.38
2019-03-18T00:15:02.259Z,59.19
2019-03-18T00:17:31.157Z,59.18
2019-03-18T00:19:58.345Z,58.68
2019-03-18T00:22:25.513Z,58.78
2019-03-18T00:24:55.842Z,59.26
2019-03-18T00:27:23.160Z,58.66
2019-03-18T00:29:50.415Z,58.53
2019-03-18T00:32:17.483Z,58.96
2019-03-18T00:34:44.592Z,59.25
2019-03-18T00:37:11.720Z,59.13
2019-03-18T00:39:38.800Z,58.78
2019-03-18T00:42:05.630Z,58.33
2019-03-18T00:44:32.427Z,58.17
2019-03-18T00:47:00.451Z,58.04
2019-03-18T00:49:27.111Z,57.60
2019-03-18T00:51:53.751Z,57.56
2019-03-18T00:54:20.730Z,58.11
2019-03-18T00:56:47.525Z,58.30
2019-03-18T00:59:14.177Z,58.10
2019-03-18T01:01:40.726Z,57.93
2019-03-18T01:04:07.451Z,57.45
2019-03-18T01:06:37.396Z,57.77
2019-03-18T01:09:05.554Z,58.57
2019-03-18T01:11:32.750Z,58.68
2019-03-18T01:13:59.338Z,59.20
2019-03-18T01:16:25.887Z,59.46
2019-03-18T01:18:52.466Z,59.15
2019-03-18T01:21:19.031Z,58.32
2019-03-18T01:23:45.594Z,58.93
2019-03-18T01:26:12.183Z,59.83
2019-03-18T01:28:38.777Z,59.13
2019-03-18T01:31:05.326Z,59.09
2019-03-18T01:33:31.978Z,59.15
2019-03-18T01:36:56.077Z,59.13
2019-03-18T01:39:26.071Z,59.02
2019-03-18T01:41:52.711Z,59.48
2019-03-18T01:44:19.324Z,59.30
2019-03-18T01:46:45.952Z,59.51
2019-03-18T01:49:12.505Z,58.54
2019-03-18T01:51:39.059Z,58.75
2019-03-18T01:54:05.794Z,59.14
2019-03-18T01:56:32.384Z,59.20
2019-03-18T01:58:59.008Z,58.70
2019-03-18T02:01:25.693Z,58.81
2019-03-18T02:03:52.252Z,59.09
2019-03-18T02:06:18.841Z,58.57
2019-03-18T02:08:45.419Z,58.91
2019-03-18T02:11:12.090Z,58.39
2019-03-18T02:13:38.755Z,58.43
2019-03-18T02:16:05.374Z,57.57
2019-03-18T02:18:31.939Z,57.55
2019-03-18T02:20:58.501Z,57.58
2019-03-18T02:23:25.144Z,57.82
2019-03-18T02:25:51.764Z,57.22
2019-03-18T02:28:18.415Z,58.27
2019-03-18T02:30:45.115Z,58.20
2019-03-18T02:33:11.674Z,57.93
2019-03-18T02:35:38.291Z,57.57
2019-03-18T02:38:04.913Z,57.84
2019-03-18T02:40:32.905Z,59.86
2019-03-18T02:43:55.622Z,61.79
2019-03-18T02:46:22.355Z,62.59
2019-03-18T02:48:48.957Z,65.93
2019-03-18T02:51:15.646Z,65.59
2019-03-18T02:53:42.240Z,67.25
2019-03-18T02:56:09.097Z,68.00
2019-03-18T02:58:35.731Z,68.73
2019-03-18T03:01:02.388Z,70.01
2019-03-18T03:03:29.013Z,67.87
2019-03-18T03:05:58.867Z,68.01
2019-03-18T03:08:25.588Z,69.26
2019-03-18T03:10:52.418Z,69.61
2019-03-18T03:13:19.024Z,70.01
2019-03-18T03:15:45.777Z,71.86
2019-03-18T03:18:12.464Z,70.99
2019-03-18T03:20:39.093Z,71.12
2019-03-18T03:23:05.680Z,69.89
2019-03-18T03:25:32.345Z,71.04
2019-03-18T03:27:58.917Z,70.48
2019-03-18T03:30:25.511Z,71.14
2019-03-18T03:32:52.072Z,71.22
2019-03-18T03:35:18.645Z,72.33
2019-03-18T03:37:45.270Z,72.24
2019-03-18T03:40:12.417Z,72.09
2019-03-18T03:42:39.238Z,72.57
2019-03-18T03:45:11.190Z,72.61
2019-03-18T03:47:37.764Z,72.63
2019-03-18T03:50:09.369Z,72.47
2019-03-18T03:52:36.058Z,72.62
2019-03-18T03:55:07.057Z,72.92
2019-03-18T03:57:33.686Z,72.93
2019-03-18T04:00:01.743Z,72.92
2019-03-18T04:02:28.703Z,73.26
2019-03-18T04:04:55.671Z,72.75
2019-03-18T04:07:22.331Z,72.82
2019-03-18T04:09:49.157Z,73.66
2019-03-18T04:12:15.718Z,73.51
2019-03-18T04:14:42.292Z,73.35
2019-03-18T04:17:08.844Z,73.46
2019-03-18T04:19:36.933Z,73.31
2019-03-18T04:22:03.753Z,73.26
2019-03-18T04:24:30.368Z,73.02
2019-03-18T04:26:56.941Z,72.78
2019-03-18T04:29:23.565Z,73.23
2019-03-18T04:31:50.767Z,73.41
2019-03-18T04:34:17.388Z,72.91
2019-03-18T04:36:44.045Z,73.65
2019-03-18T04:39:10.622Z,73.00
2019-03-18T04:41:37.164Z,73.32
2019-03-18T04:44:03.853Z,72.80
2019-03-18T04:46:30.436Z,72.64
2019-03-18T04:48:57.036Z,72.64
2019-03-18T04:51:23.716Z,72.79
2019-03-18T04:53:50.283Z,72.85
2019-03-18T04:56:16.970Z,72.59
2019-03-18T04:58:43.579Z,73.20
2019-03-18T05:01:10.147Z,73.32
2019-03-18T05:03:36.766Z,72.98
2019-03-18T05:06:03.482Z,72.90
2019-03-18T05:08:30.109Z,73.01
2019-03-18T05:10:57.979Z,72.24
2019-03-18T05:13:26.534Z,72.29
2019-03-18T05:15:52.987Z,71.57
2019-03-18T05:18:19.579Z,72.22
2019-03-18T05:20:46.149Z,72.36
2019-03-18T05:23:12.703Z,73.28
2019-03-18T05:25:39.275Z,72.40
2019-03-18T05:28:05.895Z,72.86
2019-03-18T05:30:32.466Z,72.89
2019-03-18T05:32:59.090Z,73.23
2019-03-18T05:35:25.761Z,72.75
2019-03-18T05:37:52.455Z,72.79
2019-03-18T05:40:19.042Z,72.43
2019-03-18T05:42:45.677Z,72.88
2019-03-18T05:45:12.367Z,73.24
2019-03-18T05:47:39.900Z,72.96
2019-03-18T05:50:10.022Z,72.85
2019-03-18T05:52:38.037Z,73.03
2019-03-18T05:55:07.200Z,72.80
2019-03-18T05:57:33.794Z,72.49
2019-03-18T06:00:00.507Z,72.41
2019-03-18T06:02:27.173Z,72.87
2019-03-18T06:04:53.910Z,72.83
2019-03-18T06:07:20.673Z,72.46
2019-03-18T06:09:47.281Z,72.73
2019-03-18T06:12:13.842Z,72.14
2019-03-18T06:14:40.442Z,72.25
2019-03-18T06:17:07.012Z,71.68
2019-03-18T06:19:33.713Z,72.08
2019-03-18T06:22:00.422Z,72.36
2019-03-18T06:24:28.435Z,71.47
2019-03-18T06:26:55.011Z,71.31
2019-03-18T06:29:21.857Z,70.73
2019-03-18T06:31:48.573Z,71.77
2019-03-18T06:34:15.176Z,71.84
2019-03-18T06:36:41.927Z,71.24
2019-03-18T06:39:08.670Z,71.27
2019-03-18T06:41:35.304Z,71.49
2019-03-18T06:44:02.167Z,72.03
2019-03-18T06:46:28.900Z,72.02
2019-03-18T06:48:55.601Z,70.66
2019-03-18T06:51:22.348Z,70.56
2019-03-18T06:53:48.986Z,70.43
2019-03-18T06:56:16.680Z,70.70
2019-03-18T06:58:43.245Z,70.02
2019-03-18T07:01:09.790Z,70.81
2019-03-18T07:03:36.415Z,70.50
2019-03-18T07:06:03.273Z,70.44
2019-03-18T07:08:30.106Z,70.17
2019-03-18T07:10:56.941Z,69.75
2019-03-18T07:13:23.611Z,69.54
2019-03-18T07:15:50.197Z,70.47
2019-03-18T07:18:18.453Z,70.51
2019-03-18T07:20:45.295Z,70.09
2019-03-18T07:24:08.147Z,68.81
2019-03-18T07:26:34.679Z,69.19
2019-03-18T07:29:01.411Z,68.67
2019-03-18T07:31:28.168Z,67.96
2019-03-18T07:33:54.758Z,67.91
2019-03-18T07:36:21.607Z,67.05
2019-03-18T07:38:48.315Z,65.36
2019-03-18T07:41:14.976Z,65.65
2019-03-18T07:43:41.543Z,66.61
2019-03-18T07:46:08.206Z,65.44
2019-03-18T07:48:34.780Z,64.02
2019-03-18T07:51:01.557Z,64.47
2019-03-18T07:53:28.196Z,63.33
2019-03-18T07:55:54.843Z,62.24
2019-03-18T07:58:22.540Z,63.16
2019-03-18T08:00:49.613Z,63.69
2019-03-18T08:03:16.328Z,63.31
2019-03-18T20:57:15.458Z,54.70
2019-03-18T20:59:42.445Z,52.62
2019-03-18T21:02:09.038Z,52.03
2019-03-18T21:04:35.693Z,52.92
2019-03-18T21:07:02.519Z,52.76
2019-03-18T21:09:29.119Z,53.52
2019-03-18T21:11:55.995Z,53.25
2019-03-18T21:14:22.871Z,52.97
2019-03-18T21:16:49.737Z,53.81
2019-03-18T21:19:16.530Z,53.96
2019-03-18T21:21:43.180Z,54.37
2019-03-18T21:24:09.871Z,54.27
2019-03-18T21:26:36.476Z,53.43
2019-03-18T21:29:03.453Z,53.36
2019-03-18T21:31:30.222Z,53.23
2019-03-18T21:33:56.932Z,52.75
2019-03-18T21:36:36.828Z,52.94
2019-03-18T21:38:52.331Z,53.56
2019-03-18T21:41:18.985Z,53.07
2019-03-18T21:43:45.766Z,52.91
2019-03-18T21:46:12.415Z,52.84
2019-03-18T21:48:40.034Z,53.25
2019-03-18T21:51:06.654Z,53.50
2019-03-18T21:53:33.382Z,53.30
2019-03-18T21:56:00.181Z,53.17
2019-03-18T21:58:26.790Z,53.48
2019-03-18T22:00:53.362Z,53.58
2019-03-18T22:03:20.209Z,54.18
2019-03-18T22:05:46.782Z,53.99
2019-03-18T22:09:09.794Z,54.01
2019-03-18T22:11:36.598Z,54.93
2019-03-18T22:14:03.574Z,55.52
2019-03-18T22:16:30.349Z,54.85
2019-03-18T22:18:56.920Z,55.38
2019-03-18T22:21:25.086Z,54.79
2019-03-18T22:23:52.073Z,54.96
2019-03-18T22:26:18.751Z,56.16
2019-03-18T22:28:45.479Z,56.44
2019-03-18T22:31:12.457Z,56.26
2019-03-18T22:33:39.077Z,56.23
2019-03-18T22:36:05.711Z,56.30
2019-03-18T22:38:32.711Z,56.50
2019-03-18T22:40:59.305Z,56.80
2019-03-18T22:43:25.885Z,57.10
2019-03-18T22:45:52.526Z,57.25
2019-03-18T22:48:19.099Z,58.19
2019-03-18T22:50:45.722Z,58.19
2019-03-18T22:53:12.335Z,58.06
2019-03-18T22:55:38.913Z,57.86
2019-03-18T22:58:05.645Z,58.57
2019-03-18T23:00:32.532Z,58.69
2019-03-18T23:03:01.310Z,58.65
2019-03-18T23:05:28.038Z,59.18
2019-03-18T23:07:54.718Z,59.82
2019-03-18T23:10:21.489Z,59.46
2019-03-18T23:12:49.200Z,59.94
2019-03-18T23:15:15.916Z,60.57
2019-03-18T23:17:42.672Z,60.25
2019-03-18T23:20:09.597Z,60.31
2019-03-18T23:22:36.166Z,60.64
2019-03-18T23:25:07.790Z,60.32
2019-03-18T23:27:34.947Z,60.23
2019-03-18T23:30:04.183Z,60.48
2019-03-18T23:32:31.012Z,60.26
2019-03-18T23:34:57.572Z,60.49
2019-03-18T23:37:24.339Z,61.14
2019-03-18T23:39:51.123Z,60.83
2019-03-18T23:42:17.903Z,60.92
2019-03-18T23:44:44.490Z,60.73
2019-03-18T23:47:11.104Z,61.08
2019-03-18T23:49:38.893Z,61.42
2019-03-18T23:52:05.688Z,61.50
2019-03-18T23:54:32.354Z,60.97
2019-03-18T23:56:58.916Z,61.60
2019-03-18T23:59:25.645Z,61.56
